Time;durP1;ratioP1;P1;durP2;ratioP2;P2;SDS_P1;SDS_P2;PMS_P1;PMS_P2;Temp;Humidity;BMP_temperature;BMP_pressure;BME280_temperature;BME280_humidity;BME280_pressure;Samples;Min_cycle;Max_cycle;Signal;HPM_P1;HPM_P2
2023/07/31 00:00:28;;;;;;;4.13;2.25;;;16.30;99.90;;;;;;5002831;28;20049;-70
2023/07/31 00:02:54;;;;;;;6.28;2.17;;;16.30;99.90;;;;;;5006273;28;20411;-70
2023/07/31 00:05:21;;;;;;;3.05;1.95;;;16.30;99.90;;;;;;5012892;28;20494;-70
2023/07/31 00:07:46;;;;;;;4.75;2.33;;;16.30;99.90;;;;;;5013735;28;20053;-70
2023/07/31 00:10:12;;;;;;;4.50;2.10;;;16.30;99.90;;;;;;5006270;28;20041;-70
2023/07/31 00:12:39;;;;;;;5.65;2.25;;;16.20;99.90;;;;;;5012489;28;20050;-70
2023/07/31 00:15:06;;;;;;;3.78;2.13;;;16.20;99.90;;;;;;5012047;28;20474;-71
2023/07/31 00:17:32;;;;;;;3.65;2.17;;;16.20;99.90;;;;;;5046926;28;20034;-71
2023/07/31 00:19:57;;;;;;;3.25;2.17;;;16.20;99.90;;;;;;5011713;28;20113;-70
2023/07/31 00:22:23;;;;;;;4.20;2.13;;;16.20;99.90;;;;;;5011261;28;20052;-70
2023/07/31 00:24:49;;;;;;;5.47;2.30;;;16.10;99.90;;;;;;5013779;28;20045;-70
2023/07/31 00:27:14;;;;;;;3.58;2.53;;;16.10;99.90;;;;;;5012172;28;20117;-70
2023/07/31 00:29:40;;;;;;;4.15;2.40;;;16.10;99.90;;;;;;5009956;28;20042;-70
2023/07/31 00:32:06;;;;;;;2.92;1.95;;;16.10;99.90;;;;;;5011104;28;20045;-70
2023/07/31 00:34:32;;;;;;;3.53;2.20;;;16.10;99.90;;;;;;5025684;28;20396;-70
2023/07/31 00:36:57;;;;;;;2.78;2.00;;;16.10;99.90;;;;;;5011345;28;20044;-70
2023/07/31 00:39:23;;;;;;;3.33;2.30;;;16.10;99.90;;;;;;5013073;28;20156;-70
2023/07/31 00:41:48;;;;;;;3.78;2.20;;;16.10;99.90;;;;;;5011322;28;20037;-69
2023/07/31 00:44:14;;;;;;;5.05;2.53;;;16.10;99.90;;;;;;5010271;28;20046;-69
2023/07/31 00:46:40;;;;;;;3.45;2.28;;;16.10;99.90;;;;;;5012503;28;20057;-69
2023/07/31 00:49:06;;;;;;;3.22;2.45;;;16.10;99.90;;;;;;5014336;28;20037;-69
2023/07/31 00:51:31;;;;;;;4.25;2.28;;;16.10;99.90;;;;;;5011432;28;20133;-69
2023/07/31 00:53:58;;;;;;;3.67;1.90;;;16.00;99.90;;;;;;5010778;28;20109;-69
2023/07/31 00:56:25;;;;;;;2.92;2.20;;;16.10;99.90;;;;;;5011379;28;20045;-69
2023/07/31 00:58:50;;;;;;;4.28;2.15;;;16.00;99.90;;;;;;5011315;28;20395;-69
2023/07/31 01:01:16;;;;;;;2.33;1.95;;;16.00;99.90;;;;;;5002467;28;20030;-69
2023/07/31 01:03:42;;;;;;;3.70;2.05;;;16.00;99.90;;;;;;5011369;28;20046;-69
2023/07/31 01:06:40;;;;;;;3.40;2.30;;;16.00;99.90;;;;;;5012220;28;20080;-70
2023/07/31 01:09:19;;;;;;;3.78;2.00;;;16.00;99.90;;;;;;5003898;28;20036;-70
2023/07/31 01:11:53;;;;;;;2.30;1.80;;;16.00;99.90;;;;;;5020856;28;20128;-70
2023/07/31 01:14:19;;;;;;;3.17;1.73;;;16.00;99.90;;;;;;4994196;28;20037;-70
2023/07/31 01:16:44;;;;;;;2.55;1.67;;;15.90;99.90;;;;;;5007527;28;20022;-69
2023/07/31 01:19:12;;;;;;;3.35;1.67;;;15.90;99.90;;;;;;5006409;28;20034;-69
2023/07/31 01:21:56;;;;;;;2.08;1.50;;;15.90;99.90;;;;;;5010412;28;20084;-70
2023/07/31 01:24:29;;;;;;;2.13;1.48;;;15.90;99.90;;;;;;4994055;28;20463;-70
2023/07/31 01:27:09;;;;;;;2.25;1.65;;;15.80;99.90;;;;;;5030778;28;20041;-70
2023/07/31 01:29:44;;;;;;;2.67;1.67;;;15.80;99.90;;;;;;5022110;28;20070;-70
2023/07/31 01:32:11;;;;;;;2.85;1.40;;;15.80;99.90;;;;;;5010280;28;20061;-70
2023/07/31 01:34:38;;;;;;;1.70;1.40;;;15.80;99.90;;;;;;5000186;28;20045;-70
2023/07/31 01:37:04;;;;;;;2.28;1.40;;;15.80;99.90;;;;;;5006926;28;20053;-69
2023/07/31 01:39:30;;;;;;;2.05;1.42;;;15.90;99.90;;;;;;5007364;28;20029;-70
2023/07/31 01:41:56;;;;;;;2.20;1.13;;;15.80;99.90;;;;;;5010478;28;21260;-70
2023/07/31 01:44:21;;;;;;;2.45;1.30;;;15.80;99.90;;;;;;5007576;28;20121;-70
2023/07/31 01:46:47;;;;;;;2.10;1.17;;;15.80;99.90;;;;;;5006532;28;20056;-69
2023/07/31 01:49:13;;;;;;;1.70;1.10;;;15.80;99.90;;;;;;5013434;28;20029;-70
2023/07/31 01:51:38;;;;;;;3.03;1.27;;;15.80;99.90;;;;;;5009058;28;20113;-70
2023/07/31 01:54:04;;;;;;;1.98;1.17;;;15.80;99.90;;;;;;5011336;28;20026;-70
2023/07/31 01:56:29;;;;;;;3.20;1.20;;;15.80;99.90;;;;;;5018762;28;20093;-70
2023/07/31 01:58:55;;;;;;;2.20;1.20;;;15.80;99.90;;;;;;5012135;28;20041;-70
2023/07/31 02:01:20;;;;;;;1.73;1.00;;;15.80;99.90;;;;;;5011683;28;20069;-70
2023/07/31 02:03:46;;;;;;;2.03;1.00;;;15.80;99.90;;;;;;5012543;28;20124;-70
2023/07/31 02:06:12;;;;;;;1.98;0.90;;;15.80;99.90;;;;;;5008436;28;20037;-70
2023/07/31 02:08:37;;;;;;;2.10;1.20;;;15.80;99.90;;;;;;5011084;28;20053;-69
2023/07/31 02:11:04;;;;;;;1.30;1.15;;;15.90;99.90;;;;;;5022318;28;20323;-69
2023/07/31 02:13:30;;;;;;;2.10;0.95;;;15.90;99.90;;;;;;5031800;28;20045;-70
2023/07/31 02:15:55;;;;;;;1.65;1.08;;;15.90;99.90;;;;;;5004240;28;20419;-70
2023/07/31 02:18:22;;;;;;;2.95;1.45;;;15.90;99.90;;;;;;5025514;28;20037;-69
2023/07/31 02:20:51;;;;;;;2.53;1.17;;;15.90;99.90;;;;;;5004092;28;20041;-70
2023/07/31 02:23:18;;;;;;;0.95;0.85;;;15.90;99.90;;;;;;5017943;28;20034;-70
2023/07/31 02:25:44;;;;;;;1.38;0.90;;;15.90;99.90;;;;;;5010824;28;20042;-70
2023/07/31 02:28:10;;;;;;;1.02;0.90;;;15.90;99.90;;;;;;5011569;28;20092;-70
2023/07/31 02:30:35;;;;;;;2.25;0.80;;;15.90;99.90;;;;;;5010139;28;20039;-70
2023/07/31 02:33:01;;;;;;;1.45;0.95;;;15.90;99.90;;;;;;5013537;28;20132;-70
2023/07/31 02:35:27;;;;;;;2.05;1.08;;;15.90;99.90;;;;;;5012864;28;20131;-70
2023/07/31 02:37:52;;;;;;;1.23;1.13;;;15.90;99.90;;;;;;5009345;28;20052;-70
2023/07/31 02:40:18;;;;;;;2.85;1.38;;;15.90;99.90;;;;;;5019542;28;20030;-70
2023/07/31 02:42:44;;;;;;;3.88;1.30;;;15.90;99.90;;;;;;5027813;28;20044;-70
2023/07/31 02:45:09;;;;;;;1.85;1.23;;;16.00;99.90;;;;;;5029143;28;20120;-70
2023/07/31 02:47:35;;;;;;;1.73;0.95;;;16.00;99.90;;;;;;5010180;28;20133;-70
2023/07/31 02:50:02;;;;;;;2.65;1.30;;;16.00;99.90;;;;;;5013320;28;20077;-70
2023/07/31 02:52:27;;;;;;;3.00;1.48;;;16.00;99.90;;;;;;5018881;28;20084;-70
2023/07/31 02:54:53;;;;;;;2.67;1.33;;;16.00;99.90;;;;;;5028948;28;20460;-70
2023/07/31 02:57:19;;;;;;;1.40;1.08;;;16.00;99.90;;;;;;5019883;28;20049;-70
2023/07/31 02:59:44;;;;;;;2.17;1.40;;;16.00;99.90;;;;;;5022632;28;20064;-69
2023/07/31 03:02:11;;;;;;;2.08;1.48;;;16.00;99.90;;;;;;5007245;28;20038;-70
2023/07/31 03:04:36;;;;;;;2.40;1.40;;;16.10;99.90;;;;;;5010712;28;20069;-70
2023/07/31 03:07:02;;;;;;;2.10;1.70;;;16.00;99.90;;;;;;5019111;28;20071;-69
2023/07/31 03:09:28;;;;;;;2.88;1.40;;;16.10;99.90;;;;;;5025163;28;20049;-69
2023/07/31 03:11:53;;;;;;;2.15;1.33;;;16.10;99.90;;;;;;5023357;28;20044;-69
2023/07/31 03:14:19;;;;;;;2.08;1.40;;;16.10;99.90;;;;;;5014005;28;20611;-70
2023/07/31 03:16:44;;;;;;;1.92;1.60;;;16.10;99.90;;;;;;5009948;28;20034;-69
2023/07/31 03:19:10;;;;;;;3.28;1.55;;;16.10;99.90;;;;;;5010243;28;20046;-70
2023/07/31 03:21:35;;;;;;;1.85;1.50;;;16.10;99.90;;;;;;5011027;28;20045;-70
2023/07/31 03:24:01;;;;;;;4.07;1.77;;;16.10;99.90;;;;;;5011337;28;20168;-69
2023/07/31 03:26:27;;;;;;;2.28;1.60;;;16.20;99.90;;;;;;5015541;28;20404;-70
2023/07/31 03:28:52;;;;;;;1.90;1.40;;;16.20;99.90;;;;;;5023148;28;20038;-70
2023/07/31 03:31:18;;;;;;;1.50;1.30;;;16.20;99.90;;;;;;5016060;28;20483;-70
2023/07/31 03:33:43;;;;;;;2.13;1.50;;;16.20;99.90;;;;;;5011172;28;20042;-70
2023/07/31 03:36:09;;;;;;;2.47;1.48;;;16.20;99.90;;;;;;5008878;28;20030;-69
2023/07/31 03:38:35;;;;;;;2.90;1.70;;;16.20;99.90;;;;;;5014131;28;20415;-69
2023/07/31 03:41:00;;;;;;;1.52;1.20;;;16.10;99.90;;;;;;5011647;28;20068;-70
2023/07/31 03:43:26;;;;;;;1.50;1.20;;;16.20;99.90;;;;;;5010902;28;20407;-70
2023/07/31 03:45:51;;;;;;;1.80;1.30;;;16.20;99.90;;;;;;5008067;28;20038;-70
2023/07/31 03:48:17;;;;;;;1.80;1.30;;;16.20;99.90;;;;;;5015550;28;20040;-70
2023/07/31 03:50:43;;;;;;;2.15;1.48;;;16.10;99.90;;;;;;5030243;28;20038;-69
2023/07/31 03:53:08;;;;;;;1.63;1.10;;;16.20;99.90;;;;;;5010060;28;20447;-69
2023/07/31 03:55:34;;;;;;;1.73;1.23;;;16.20;99.90;;;;;;5012206;28;20068;-70
2023/07/31 03:58:00;;;;;;;1.95;1.20;;;16.20;99.90;;;;;;5016719;28;20053;-69
2023/07/31 04:00:27;;;;;;;1.10;1.00;;;16.20;99.90;;;;;;5008988;28;20096;-69
2023/07/31 04:02:52;;;;;;;1.40;1.00;;;16.20;99.90;;;;;;5008990;28;20044;-69
2023/07/31 04:05:18;;;;;;;1.90;1.10;;;16.20;99.90;;;;;;5009313;28;20034;-70
2023/07/31 04:07:44;;;;;;;2.28;1.17;;;16.20;99.90;;;;;;5017970;28;20091;-70
2023/07/31 04:10:09;;;;;;;1.45;1.05;;;16.30;99.90;;;;;;5021177;28;20034;-70
2023/07/31 04:12:35;;;;;;;1.23;1.13;;;16.20;99.90;;;;;;5018545;28;20403;-68
2023/07/31 04:15:01;;;;;;;1.35;1.10;;;16.30;99.90;;;;;;5010235;28;20076;-69
2023/07/31 04:17:26;;;;;;;1.88;1.00;;;16.30;99.90;;;;;;5009697;28;20030;-70
2023/07/31 04:19:52;;;;;;;1.83;0.90;;;16.20;99.90;;;;;;5009931;28;20715;-69
2023/07/31 04:22:17;;;;;;;1.52;0.90;;;16.30;99.90;;;;;;5006886;28;20099;-70
2023/07/31 04:24:43;;;;;;;1.60;0.88;;;16.30;99.90;;;;;;5004283;28;20184;-69
2023/07/31 04:27:08;;;;;;;1.88;0.80;;;16.30;99.90;;;;;;5012603;28;20073;-70
2023/07/31 04:29:34;;;;;;;3.10;0.90;;;16.30;99.90;;;;;;5008426;28;20038;-70
2023/07/31 04:32:00;;;;;;;1.13;0.90;;;16.30;99.90;;;;;;5008995;28;20037;-70
2023/07/31 04:34:25;;;;;;;2.58;1.00;;;16.30;99.90;;;;;;5011051;28;20037;-69
2023/07/31 04:36:51;;;;;;;2.08;1.00;;;16.40;99.90;;;;;;5000481;28;20038;-69
2023/07/31 04:39:16;;;;;;;2.10;0.88;;;16.40;99.90;;;;;;5015266;28;20034;-70
2023/07/31 04:41:42;;;;;;;1.77;0.90;;;16.40;99.90;;;;;;5017513;28;20056;-69
2023/07/31 04:44:08;;;;;;;2.17;1.10;;;16.40;99.90;;;;;;5007308;28;20052;-70
2023/07/31 04:46:33;;;;;;;1.90;1.10;;;16.40;99.90;;;;;;5014413;28;20077;-70
2023/07/31 04:49:00;;;;;;;3.53;1.20;;;16.40;99.90;;;;;;5014037;28;20041;-70
2023/07/31 04:51:26;;;;;;;4.47;1.40;;;16.40;99.90;;;;;;5012051;28;20042;-70
2023/07/31 04:53:51;;;;;;;3.25;1.65;;;16.40;99.90;;;;;;4996989;28;20126;-70
2023/07/31 04:56:17;;;;;;;4.65;1.70;;;16.40;99.90;;;;;;5013016;28;20065;-70
2023/07/31 04:58:43;;;;;;;7.00;2.17;;;16.40;99.90;;;;;;5011408;28;20044;-70
2023/07/31 05:01:08;;;;;;;6.18;2.45;;;16.40;99.90;;;;;;5008408;28;20479;-70
2023/07/31 05:03:34;;;;;;;10.85;3.38;;;16.50;99.90;;;;;;5009330;28;20037;-70
2023/07/31 05:05:59;;;;;;;11.35;4.07;;;16.50;99.90;;;;;;5013225;28;20073;-70
2023/07/31 05:08:25;;;;;;;11.88;4.35;;;16.50;99.90;;;;;;4998309;28;20053;-70
2023/07/31 05:10:51;;;;;;;12.27;4.43;;;16.50;99.90;;;;;;4990203;28;20799;-70
2023/07/31 05:13:16;;;;;;;13.30;4.78;;;16.50;99.90;;;;;;4990648;28;20057;-70
2023/07/31 05:15:42;;;;;;;17.20;5.00;;;16.50;99.90;;;;;;4995951;28;20176;-68
2023/07/31 05:18:08;;;;;;;18.15;6.30;;;16.50;99.90;;;;;;5002701;28;21408;-69
2023/07/31 05:20:33;;;;;;;12.43;5.50;;;16.60;99.90;;;;;;5008871;28;20053;-69
2023/07/31 05:22:59;;;;;;;16.33;5.60;;;16.60;99.90;;;;;;5003296;28;20033;-69
2023/07/31 05:25:24;;;;;;;15.75;5.75;;;16.60;99.90;;;;;;5007472;28;20508;-70
2023/07/31 05:27:50;;;;;;;21.23;7.22;;;16.60;99.90;;;;;;4993479;28;20074;-70
2023/07/31 05:30:16;;;;;;;15.95;5.97;;;16.60;99.90;;;;;;5009575;28;20070;-69
2023/07/31 05:32:41;;;;;;;20.25;6.63;;;16.60;99.90;;;;;;5006139;28;20049;-69
2023/07/31 05:35:07;;;;;;;17.50;6.65;;;16.70;99.90;;;;;;5012699;28;20038;-69
2023/07/31 05:37:32;;;;;;;19.33;6.82;;;16.60;99.90;;;;;;5019720;28;20038;-69
2023/07/31 05:39:58;;;;;;;23.35;6.47;;;16.70;99.90;;;;;;5019455;28;20117;-69
2023/07/31 05:42:24;;;;;;;24.48;6.90;;;16.70;99.90;;;;;;5020477;28;20045;-68
2023/07/31 05:44:49;;;;;;;22.67;7.78;;;16.70;99.90;;;;;;5012731;28;20132;-69
2023/07/31 05:47:15;;;;;;;25.05;7.93;;;16.70;99.90;;;;;;5012167;28;20113;-68
2023/07/31 05:49:41;;;;;;;26.20;7.53;;;16.70;99.90;;;;;;5011233;28;20409;-69
2023/07/31 05:52:07;;;;;;;28.55;8.23;;;16.80;99.90;;;;;;5008357;28;20030;-69
2023/07/31 05:54:33;;;;;;;31.55;9.13;;;16.80;99.90;;;;;;5010470;28;20042;-69
2023/07/31 05:56:59;;;;;;;24.65;7.70;;;16.80;99.90;;;;;;5011253;28;20065;-69
2023/07/31 05:59:24;;;;;;;24.60;7.50;;;16.70;99.90;;;;;;5049892;22;20029;-70
2023/07/31 06:01:50;;;;;;;22.58;7.35;;;16.80;99.90;;;;;;5047040;28;20037;-71
2023/07/31 06:04:15;;;;;;;25.48;7.85;;;16.80;99.90;;;;;;5054811;28;20045;-71
2023/07/31 06:06:41;;;;;;;25.88;8.07;;;16.80;99.90;;;;;;5049934;28;20079;-71
2023/07/31 06:09:06;;;;;;;23.92;7.78;;;16.80;99.90;;;;;;5060339;28;20107;-71
2023/07/31 06:11:33;;;;;;;25.30;7.82;;;16.80;99.90;;;;;;5063522;28;20513;-71
2023/07/31 06:13:59;;;;;;;25.42;8.20;;;16.80;99.90;;;;;;5066525;28;20056;-70
2023/07/31 06:16:26;;;;;;;27.73;8.77;;;16.80;99.90;;;;;;5068707;28;20075;-71
2023/07/31 06:18:52;;;;;;;22.98;8.18;;;16.80;99.90;;;;;;5071535;28;20108;-71
2023/07/31 06:21:18;;;;;;;20.00;7.50;;;16.80;99.90;;;;;;5071421;28;20087;-71
2023/07/31 06:23:43;;;;;;;19.95;7.88;;;16.80;99.90;;;;;;5068153;28;20048;-71
2023/07/31 06:26:09;;;;;;;22.98;8.15;;;16.80;99.90;;;;;;5061464;28;20051;-71
2023/07/31 06:28:35;;;;;;;25.92;8.95;;;16.80;99.90;;;;;;5063732;28;20402;-71
2023/07/31 06:31:01;;;;;;;24.88;9.68;;;16.80;99.90;;;;;;5054320;28;20380;-70
2023/07/31 06:33:27;;;;;;;24.88;8.23;;;16.80;99.90;;;;;;5062942;28;20486;-70
2023/07/31 06:35:53;;;;;;;25.35;9.25;;;16.80;99.90;;;;;;5061204;28;20074;-69
2023/07/31 06:38:23;;;;;;;26.00;8.95;;;16.80;99.90;;;;;;5062076;28;20033;-65
2023/07/31 06:40:49;;;;;;;24.30;9.20;;;16.80;99.90;;;;;;5062618;28;20123;-66
2023/07/31 06:43:14;;;;;;;21.48;9.50;;;16.80;99.90;;;;;;5066716;28;20151;-66
2023/07/31 06:45:40;;;;;;;23.50;8.30;;;16.80;99.90;;;;;;5053690;28;20060;-66
2023/07/31 06:48:05;;;;;;;22.52;9.00;;;16.80;99.90;;;;;;5059588;28;20457;-66
2023/07/31 06:50:32;;;;;;;21.33;8.73;;;16.80;99.90;;;;;;5066021;28;20036;-66
2023/07/31 06:52:57;;;;;;;24.58;9.65;;;16.80;99.90;;;;;;5061834;28;20178;-66
2023/07/31 06:55:23;;;;;;;25.30;9.32;;;16.80;99.90;;;;;;5054797;28;20116;-66
2023/07/31 06:57:50;;;;;;;21.52;8.48;;;16.80;99.90;;;;;;5055343;28;20037;-66
2023/07/31 07:00:17;;;;;;;23.17;8.73;;;16.70;99.90;;;;;;5065752;28;20966;-66
2023/07/31 07:02:43;;;;;;;21.75;7.82;;;16.70;99.90;;;;;;5060846;28;20059;-66
2023/07/31 07:05:09;;;;;;;26.92;8.88;;;16.70;99.90;;;;;;5052893;28;20044;-66
2023/07/31 07:07:35;;;;;;;23.17;8.48;;;16.70;99.90;;;;;;5057533;28;20033;-66
2023/07/31 07:10:00;;;;;;;24.15;8.50;;;16.70;99.90;;;;;;5062568;28;20583;-66
2023/07/31 07:12:29;;;;;;;19.20;7.25;;;16.80;99.90;;;;;;5060484;28;20055;-67
2023/07/31 07:14:54;;;;;;;17.77;7.05;;;16.80;99.90;;;;;;5062693;28;20037;-67
2023/07/31 07:17:20;;;;;;;20.90;7.18;;;16.70;99.90;;;;;;5066247;28;20025;-67
2023/07/31 07:19:48;;;;;;;17.30;6.25;;;16.70;99.90;;;;;;5058708;28;20118;-67
2023/07/31 07:22:13;;;;;;;18.67;6.25;;;16.70;99.90;;;;;;5055735;28;20090;-67
2023/07/31 07:24:39;;;;;;;14.77;5.68;;;16.80;99.90;;;;;;5066284;28;20059;-67
2023/07/31 07:27:05;;;;;;;16.58;6.10;;;16.80;99.90;;;;;;5060875;28;20036;-67
2023/07/31 07:29:30;;;;;;;12.38;6.05;;;16.80;99.90;;;;;;5063652;28;20044;-66
2023/07/31 07:31:56;;;;;;;15.00;5.15;;;16.80;99.90;;;;;;5066705;28;20102;-67
2023/07/31 07:34:26;;;;;;;13.55;5.40;;;16.80;99.90;;;;;;5055685;28;20119;-67
2023/07/31 07:36:52;;;;;;;12.73;4.70;;;16.90;99.90;;;;;;5061491;28;20033;-67
2023/07/31 07:39:18;;;;;;;10.35;4.60;;;16.90;99.90;;;;;;5060084;28;20104;-67
2023/07/31 07:41:43;;;;;;;18.48;5.97;;;16.90;99.90;;;;;;5056277;28;20041;-67
2023/07/31 07:44:09;;;;;;;16.63;5.25;;;16.90;99.90;;;;;;5066616;28;20032;-67
2023/07/31 07:46:34;;;;;;;9.40;4.78;;;16.90;99.90;;;;;;5066918;28;20102;-67
2023/07/31 07:49:00;;;;;;;12.43;5.30;;;16.90;99.90;;;;;;5056989;28;20165;-67
2023/07/31 07:51:30;;;;;;;11.10;4.93;;;16.90;99.90;;;;;;5060081;28;20048;-67
2023/07/31 07:53:56;;;;;;;10.30;5.00;;;16.90;99.90;;;;;;5069964;28;20047;-67
2023/07/31 07:56:22;;;;;;;11.13;4.72;;;16.90;99.90;;;;;;5069818;28;20103;-67
2023/07/31 07:58:50;;;;;;;13.10;4.90;;;16.90;99.90;;;;;;5068516;28;20036;-67
2023/07/31 08:01:16;;;;;;;10.20;5.20;;;16.90;99.90;;;;;;5073632;28;20036;-67
2023/07/31 08:03:41;;;;;;;9.80;5.10;;;16.90;99.90;;;;;;5067834;28;20095;-67
2023/07/31 08:06:09;;;;;;;11.82;5.15;;;16.90;99.90;;;;;;5069257;28;20040;-66
2023/07/31 08:08:38;;;;;;;10.13;4.82;;;17.00;99.90;;;;;;5068348;28;20429;-67
2023/07/31 08:11:03;;;;;;;15.80;5.20;;;17.00;99.90;;;;;;5067191;28;20445;-67
2023/07/31 08:13:29;;;;;;;12.02;5.20;;;17.00;99.90;;;;;;5067640;28;20068;-66
2023/07/31 08:15:55;;;;;;;9.50;4.70;;;17.00;99.90;;;;;;5069463;28;20029;-67
2023/07/31 08:18:21;;;;;;;12.88;5.18;;;17.00;99.90;;;;;;5065597;28;20028;-67
2023/07/31 08:20:47;;;;;;;8.27;3.90;;;17.00;99.90;;;;;;5065034;28;20032;-66
2023/07/31 08:23:13;;;;;;;9.73;4.75;;;17.00;99.90;;;;;;5060205;28;20140;-67
2023/07/31 08:25:39;;;;;;;9.55;4.80;;;17.00;99.90;;;;;;5064717;28;20123;-66
2023/07/31 08:28:06;;;;;;;8.23;4.53;;;17.00;99.90;;;;;;5059163;28;20033;-67
2023/07/31 08:30:33;;;;;;;6.35;3.80;;;17.00;99.90;;;;;;5067582;28;20397;-66
2023/07/31 08:32:59;;;;;;;7.90;3.95;;;17.00;99.90;;;;;;5070277;28;20040;-66
2023/07/31 08:35:27;;;;;;;7.88;3.90;;;17.00;99.90;;;;;;5068569;28;20115;-66
2023/07/31 08:37:53;;;;;;;6.60;3.78;;;17.00;99.90;;;;;;5060072;28;20037;-67
2023/07/31 08:40:19;;;;;;;5.30;3.45;;;17.00;99.90;;;;;;5070216;28;20048;-67
2023/07/31 08:42:49;;;;;;;7.68;3.63;;;17.00;99.90;;;;;;5061647;28;20039;-67
2023/07/31 08:45:19;;;;;;;5.43;3.22;;;17.10;99.90;;;;;;5057782;28;20044;-67
2023/07/31 08:47:47;;;;;;;8.05;3.80;;;17.10;99.90;;;;;;5070427;28;20044;-66
2023/07/31 08:50:14;;;;;;;5.32;2.80;;;17.10;99.90;;;;;;5065610;28;20044;-66
2023/07/31 08:52:40;;;;;;;5.22;2.92;;;17.20;99.90;;;;;;5065502;28;20041;-66
2023/07/31 08:55:06;;;;;;;5.65;3.03;;;17.20;99.90;;;;;;5061233;28;20052;-66
2023/07/31 08:57:35;;;;;;;5.72;2.60;;;17.20;99.90;;;;;;5067869;28;20040;-66
2023/07/31 09:00:01;;;;;;;6.22;2.53;;;17.30;99.90;;;;;;5069574;28;20498;-67
2023/07/31 09:02:36;;;;;;;7.13;3.67;;;17.30;99.90;;;;;;5058567;28;20128;-67
2023/07/31 09:05:02;;;;;;;3.75;2.38;;;17.40;99.90;;;;;;5055615;28;20067;-67
2023/07/31 09:07:30;;;;;;;2.88;2.30;;;17.40;99.90;;;;;;5070475;28;20059;-67
2023/07/31 09:09:55;;;;;;;5.35;2.45;;;17.50;99.90;;;;;;5062673;28;20071;-66
2023/07/31 09:12:21;;;;;;;2.60;2.05;;;17.50;99.90;;;;;;5064229;28;20482;-66
2023/07/31 09:14:47;;;;;;;4.38;2.08;;;17.60;99.90;;;;;;5063447;28;20037;-67
2023/07/31 09:17:13;;;;;;;2.67;1.92;;;17.60;99.90;;;;;;5069105;28;20040;-66
2023/07/31 09:19:38;;;;;;;4.43;2.25;;;17.50;99.90;;;;;;5066570;28;20501;-66
2023/07/31 09:22:05;;;;;;;3.45;1.98;;;17.60;99.90;;;;;;5060234;28;20037;-67
2023/07/31 09:24:33;;;;;;;2.78;2.22;;;17.60;99.90;;;;;;5059432;28;20433;-67
2023/07/31 09:27:00;;;;;;;3.08;2.20;;;17.60;99.90;;;;;;5066718;28;20051;-67
2023/07/31 09:29:27;;;;;;;3.20;2.03;;;17.60;99.90;;;;;;5065213;28;20048;-67
2023/07/31 09:31:54;;;;;;;2.28;1.77;;;17.60;99.90;;;;;;5064682;28;20126;-67
2023/07/31 09:34:27;;;;;;;2.22;1.52;;;17.70;99.90;;;;;;5057514;28;20386;-67
2023/07/31 09:36:53;;;;;;;2.35;1.50;;;17.70;99.90;;;;;;5057514;28;20091;-67
2023/07/31 09:39:20;;;;;;;2.63;1.70;;;17.70;99.90;;;;;;5060187;28;20040;-67
2023/07/31 09:41:54;;;;;;;2.15;1.60;;;17.70;99.90;;;;;;5064052;28;20084;-67
2023/07/31 09:44:21;;;;;;;2.35;1.27;;;17.80;99.90;;;;;;5065455;28;20487;-67
2023/07/31 09:46:46;;;;;;;2.25;1.40;;;17.80;99.90;;;;;;5060202;28;20099;-66
2023/07/31 09:49:14;;;;;;;2.95;1.80;;;17.90;99.90;;;;;;5069216;28;20032;-67
2023/07/31 09:51:41;;;;;;;2.00;1.30;;;17.90;99.90;;;;;;5062162;28;20045;-66
2023/07/31 09:54:13;;;;;;;1.63;0.90;;;18.00;99.90;;;;;;5051408;28;20068;-67
2023/07/31 09:56:45;;;;;;;1.40;1.20;;;18.00;99.90;;;;;;5063905;28;20051;-67
2023/07/31 09:59:16;;;;;;;1.40;1.30;;;18.00;99.90;;;;;;5069776;28;20060;-66
2023/07/31 10:01:41;;;;;;;;;;;17.90;99.90;;;;;;5063854;28;20040;-66
2023/07/31 10:04:11;;;;;;;1.67;1.40;;;17.90;99.90;;;;;;5066725;28;19928;-66
2023/07/31 10:06:38;;;;;;;2.33;1.30;;;17.90;99.90;;;;;;5062339;28;20044;-66
2023/07/31 10:09:16;;;;;;;2.60;1.38;;;17.90;99.90;;;;;;5069099;28;20071;-66
2023/07/31 10:11:50;;;;;;;1.48;1.35;;;17.90;99.90;;;;;;5070312;28;20448;-66
2023/07/31 10:14:20;;;;;;;2.08;1.60;;;18.00;99.90;;;;;;5071307;28;20036;-65
2023/07/31 10:16:47;;;;;;;1.40;1.30;;;18.00;99.90;;;;;;5068005;28;20032;-66
2023/07/31 10:19:12;;;;;;;3.08;1.70;;;18.00;99.90;;;;;;5070247;28;20036;-66
2023/07/31 10:21:38;;;;;;;1.88;1.65;;;18.00;99.90;;;;;;5064818;28;20032;-65
2023/07/31 10:24:04;;;;;;;1.85;1.58;;;18.10;99.90;;;;;;5070133;28;20129;-66
2023/07/31 10:26:33;;;;;;;2.60;1.77;;;18.10;99.90;;;;;;5063181;28;20040;-65
2023/07/31 10:29:01;;;;;;;;;;;18.20;99.90;;;;;;5062597;28;20051;-65
2023/07/31 10:31:28;;;;;;;2.67;1.90;;;18.30;99.90;;;;;;5067655;28;20023;-65
2023/07/31 10:33:55;;;;;;;2.70;2.13;;;18.30;99.90;;;;;;5062398;28;20044;-65
2023/07/31 10:36:21;;;;;;;4.97;2.55;;;18.30;99.90;;;;;;5052216;28;20052;-65
2023/07/31 10:38:50;;;;;;;3.22;2.50;;;18.30;99.90;;;;;;5064615;28;20044;-65
2023/07/31 10:41:16;;;;;;;3.30;2.40;;;18.30;99.90;;;;;;5058079;28;20032;-65
2023/07/31 10:43:41;;;;;;;4.03;2.60;;;18.30;99.90;;;;;;5061415;28;20041;-65
2023/07/31 10:46:09;;;;;;;2.92;2.17;;;18.40;99.90;;;;;;5055606;28;20044;-65
2023/07/31 10:48:36;;;;;;;2.38;2.10;;;18.40;99.90;;;;;;5063618;28;20082;-66
2023/07/31 10:51:17;;;;;;;2.42;2.22;;;18.30;99.90;;;;;;5067884;28;20074;-65
2023/07/31 10:53:43;;;;;;;2.70;2.30;;;18.40;99.90;;;;;;5060490;28;20041;-66
2023/07/31 10:56:12;;;;;;;2.70;2.03;;;18.50;99.90;;;;;;5063801;28;20064;-65
2023/07/31 10:58:38;;;;;;;1.98;1.80;;;18.60;99.90;;;;;;5065055;28;20069;-65
2023/07/31 11:01:05;;;;;;;2.22;1.60;;;18.70;99.90;;;;;;5064083;28;20109;-66
2023/07/31 11:03:48;;;;;;;2.42;1.90;;;18.80;99.90;;;;;;5067713;28;20036;-65
2023/07/31 11:06:16;;;;;;;2.28;1.60;;;18.90;99.90;;;;;;5061491;28;20059;-66
2023/07/31 11:08:45;;;;;;;2.47;2.00;;;19.00;99.90;;;;;;5051449;28;20170;-66
2023/07/31 11:11:16;;;;;;;1.88;1.73;;;19.00;99.90;;;;;;5066516;28;20036;-65
2023/07/31 11:13:52;;;;;;;2.13;1.90;;;19.10;99.90;;;;;;5056655;28;20502;-65
2023/07/31 11:16:20;;;;;;;2.53;2.03;;;19.10;99.90;;;;;;5063093;28;20491;-66
2023/07/31 11:18:48;;;;;;;2.50;2.08;;;19.10;99.90;;;;;;5064535;28;20448;-65
2023/07/31 11:21:19;;;;;;;3.10;2.33;;;19.10;99.90;;;;;;5063000;28;20033;-65
2023/07/31 11:23:48;;;;;;;;;;;19.10;99.90;;;;;;5064488;28;20079;-66
2023/07/31 11:26:15;;;;;;;2.85;2.50;;;19.10;99.90;;;;;;5060712;28;19916;-66
2023/07/31 11:28:42;;;;;;;3.22;2.30;;;19.00;99.90;;;;;;5061320;28;20107;-66
2023/07/31 11:31:09;;;;;;;3.70;2.45;;;19.00;99.90;;;;;;5059215;28;21410;-66
2023/07/31 11:33:35;;;;;;;2.22;2.00;;;19.00;99.90;;;;;;5070914;28;20037;-66
2023/07/31 11:36:01;;;;;;;2.20;2.00;;;19.00;99.90;;;;;;5064398;28;20028;-66
2023/07/31 11:38:31;;;;;;;2.25;2.05;;;19.00;99.90;;;;;;5061230;28;20406;-66
2023/07/31 11:40:59;;;;;;;1.98;1.70;;;19.00;99.90;;;;;;5063263;28;20509;-66
2023/07/31 11:43:26;;;;;;;4.40;1.90;;;19.00;99.90;;;;;;5064638;28;20218;-67
2023/07/31 11:45:55;;;;;;;2.15;1.30;;;19.00;99.90;;;;;;5063814;28;20052;-66
2023/07/31 11:48:29;;;;;;;2.50;1.70;;;19.10;99.90;;;;;;5062880;28;20040;-65
2023/07/31 11:50:58;;;;;;;1.60;1.50;;;19.20;99.90;;;;;;5063524;28;20055;-65
2023/07/31 11:53:49;;;;;;;1.35;1.25;;;19.30;99.90;;;;;;5061595;28;20076;-66
2023/07/31 11:56:18;;;;;;;1.73;1.40;;;19.20;99.90;;;;;;5067926;28;20489;-65
2023/07/31 11:58:53;;;;;;;2.15;1.50;;;19.20;99.90;;;;;;5073954;22;20037;-64
2023/07/31 12:01:21;;;;;;;1.50;1.30;;;19.20;99.90;;;;;;5016345;28;20046;-64
2023/07/31 12:03:47;;;;;;;0.88;0.88;;;19.20;99.90;;;;;;5004934;28;20058;-64
2023/07/31 12:06:13;;;;;;;0.85;0.85;;;19.20;99.90;;;;;;5007076;28;20468;-64
2023/07/31 12:08:39;;;;;;;1.13;0.70;;;19.30;99.90;;;;;;5009391;28;20055;-64
2023/07/31 12:11:06;;;;;;;0.80;0.60;;;19.40;99.90;;;;;;4986108;28;20034;-64
2023/07/31 12:13:33;;;;;;;1.17;0.60;;;19.60;99.90;;;;;;4986376;28;20038;-64
2023/07/31 12:16:01;;;;;;;0.75;0.50;;;19.70;99.90;;;;;;4984118;28;20560;-63
2023/07/31 12:18:28;;;;;;;1.58;0.80;;;19.70;99.90;;;;;;4986787;28;20447;-65
2023/07/31 12:20:56;;;;;;;0.95;0.60;;;19.60;99.90;;;;;;4992100;28;20054;-64
2023/07/31 12:23:30;;;;;;;1.40;1.23;;;19.50;99.90;;;;;;4994048;28;20042;-64
2023/07/31 12:26:23;;;;;;;1.25;1.10;;;19.50;99.90;;;;;;4989437;28;20038;-64
2023/07/31 12:28:50;;;;;;;4.60;1.17;;;19.40;99.90;;;;;;4991501;28;20046;-64
2023/07/31 12:31:17;;;;;;;1.30;1.02;;;19.30;99.90;;;;;;4991670;28;20045;-63
2023/07/31 12:33:43;;;;;;;2.55;1.27;;;19.30;99.90;;;;;;4989709;28;20046;-64
2023/07/31 12:37:03;;;;;;;2.58;2.08;;;19.40;99.90;;;;;;4990964;28;20038;-64
2023/07/31 12:39:29;;;;;;;2.70;1.40;;;19.50;99.90;;;;;;4967542;28;20042;-63
2023/07/31 12:41:54;;;;;;;2.33;1.38;;;19.40;99.90;;;;;;4983788;28;20050;-63
2023/07/31 12:44:20;;;;;;;1.80;1.40;;;19.40;99.90;;;;;;4989000;28;20109;-63